Terminal Aerodrome Forecast
Issued by NWS Midland/Odessa, TX

Current Version | Previous Version | Text Only | Print | Product List | Glossary On
Versions: 1 2 3 4 5 6 7 8 9 10 11 12 13 14 15 16 17 18 19
000
FTUS44 KMAF 201700
TAFMAF
TAF
KMAF 201740Z 2018/2118 15006KT 5SM BR OVC006
      TEMPO 2018/2019 P6SM NSW BKN020
     FM202000 18009KT P6SM FEW200
     FM210300 19007KT 5SM BR BKN010
     FM210600 19007KT 1/4SM FG OVC001=

USA.gov is the U.S. government's official web portal to all federal, state and local government web resources and services.